sensor_id;sensor_type;location;lat;lon;timestamp;P1;durP1;ratioP1;P2;durP2;ratioP2
70707;SDS011;58277;47.316;18.908;2022-12-11T00:01:20;22.95;;;8.43;;
70707;SDS011;58277;47.316;18.908;2022-12-11T00:03:43;24.35;;;9.13;;
70707;SDS011;58277;47.316;18.908;2022-12-11T00:06:06;24.53;;;9.97;;
70707;SDS011;58277;47.316;18.908;2022-12-11T00:08:30;23.83;;;9.00;;
70707;SDS011;58277;47.316;18.908;2022-12-11T00:10:53;25.15;;;10.00;;
70707;SDS011;58277;47.316;18.908;2022-12-11T00:13:15;25.00;;;10.10;;
70707;SDS011;58277;47.316;18.908;2022-12-11T00:15:38;23.95;;;9.32;;
70707;SDS011;58277;47.316;18.908;2022-12-11T00:18:01;24.10;;;9.63;;
70707;SDS011;58277;47.316;18.908;2022-12-11T00:20:24;26.58;;;9.23;;
70707;SDS011;58277;47.316;18.908;2022-12-11T00:22:47;23.15;;;9.18;;
70707;SDS011;58277;47.316;18.908;2022-12-11T00:25:09;24.85;;;9.27;;
70707;SDS011;58277;47.316;18.908;2022-12-11T00:27:33;23.60;;;9.38;;
70707;SDS011;58277;47.316;18.908;2022-12-11T00:29:56;23.60;;;9.53;;
70707;SDS011;58277;47.316;18.908;2022-12-11T00:32:19;22.33;;;9.18;;
70707;SDS011;58277;47.316;18.908;2022-12-11T00:34:42;23.85;;;9.77;;
70707;SDS011;58277;47.316;18.908;2022-12-11T00:37:04;23.15;;;9.20;;
70707;SDS011;58277;47.316;18.908;2022-12-11T00:39:27;24.17;;;9.77;;
70707;SDS011;58277;47.316;18.908;2022-12-11T00:41:50;21.73;;;9.17;;
70707;SDS011;58277;47.316;18.908;2022-12-11T00:44:12;22.10;;;9.13;;
70707;SDS011;58277;47.316;18.908;2022-12-11T00:46:35;20.50;;;8.93;;
70707;SDS011;58277;47.316;18.908;2022-12-11T00:48:58;19.13;;;8.15;;
70707;SDS011;58277;47.316;18.908;2022-12-11T00:51:20;24.45;;;8.75;;
70707;SDS011;58277;47.316;18.908;2022-12-11T00:53:43;20.40;;;8.00;;
70707;SDS011;58277;47.316;18.908;2022-12-11T00:56:09;20.67;;;7.95;;
70707;SDS011;58277;47.316;18.908;2022-12-11T00:58:43;19.33;;;7.55;;
70707;SDS011;58277;47.316;18.908;2022-12-11T01:01:07;22.58;;;8.43;;
70707;SDS011;58277;47.316;18.908;2022-12-11T01:03:32;20.25;;;8.35;;
70707;SDS011;58277;47.316;18.908;2022-12-11T01:05:54;21.53;;;7.90;;
70707;SDS011;58277;47.316;18.908;2022-12-11T01:08:17;18.98;;;8.25;;
70707;SDS011;58277;47.316;18.908;2022-12-11T01:10:40;18.77;;;8.13;;
70707;SDS011;58277;47.316;18.908;2022-12-11T01:13:04;19.20;;;7.95;;
70707;SDS011;58277;47.316;18.908;2022-12-11T01:15:30;18.67;;;7.43;;
70707;SDS011;58277;47.316;18.908;2022-12-11T01:18:03;19.40;;;7.17;;
70707;SDS011;58277;47.316;18.908;2022-12-11T01:20:26;19.80;;;7.50;;
70707;SDS011;58277;47.316;18.908;2022-12-11T01:22:53;21.92;;;7.57;;
70707;SDS011;58277;47.316;18.908;2022-12-11T01:25:18;15.63;;;7.03;;
70707;SDS011;58277;47.316;18.908;2022-12-11T01:27:41;17.85;;;7.18;;
70707;SDS011;58277;47.316;18.908;2022-12-11T01:30:04;18.70;;;7.43;;
70707;SDS011;58277;47.316;18.908;2022-12-11T01:32:29;16.55;;;6.88;;
70707;SDS011;58277;47.316;18.908;2022-12-11T01:34:51;19.25;;;7.57;;
70707;SDS011;58277;47.316;18.908;2022-12-11T01:37:14;17.83;;;7.47;;
70707;SDS011;58277;47.316;18.908;2022-12-11T01:39:37;16.45;;;7.20;;
70707;SDS011;58277;47.316;18.908;2022-12-11T01:42:00;16.87;;;7.33;;
70707;SDS011;58277;47.316;18.908;2022-12-11T01:46:45;16.80;;;7.43;;
70707;SDS011;58277;47.316;18.908;2022-12-11T01:49:08;18.35;;;7.82;;
70707;SDS011;58277;47.316;18.908;2022-12-11T01:51:56;18.08;;;7.03;;
70707;SDS011;58277;47.316;18.908;2022-12-11T01:54:16;19.37;;;8.40;;
70707;SDS011;58277;47.316;18.908;2022-12-11T01:56:44;17.83;;;7.60;;
70707;SDS011;58277;47.316;18.908;2022-12-11T01:59:09;22.05;;;8.10;;
70707;SDS011;58277;47.316;18.908;2022-12-11T02:01:39;18.23;;;7.68;;
70707;SDS011;58277;47.316;18.908;2022-12-11T02:04:08;18.42;;;7.70;;
70707;SDS011;58277;47.316;18.908;2022-12-11T02:06:36;17.80;;;7.53;;
70707;SDS011;58277;47.316;18.908;2022-12-11T02:09:02;18.92;;;7.60;;
70707;SDS011;58277;47.316;18.908;2022-12-11T02:11:46;18.10;;;7.55;;
70707;SDS011;58277;47.316;18.908;2022-12-11T02:25:16;17.20;;;7.35;;
70707;SDS011;58277;47.316;18.908;2022-12-11T02:27:51;18.50;;;7.63;;
70707;SDS011;58277;47.316;18.908;2022-12-11T02:30:18;20.35;;;8.07;;
70707;SDS011;58277;47.316;18.908;2022-12-11T02:32:46;19.03;;;7.30;;
70707;SDS011;58277;47.316;18.908;2022-12-11T02:38:14;19.95;;;7.93;;
70707;SDS011;58277;47.316;18.908;2022-12-11T02:40:41;21.60;;;8.77;;
70707;SDS011;58277;47.316;18.908;2022-12-11T02:43:06;20.48;;;7.95;;
70707;SDS011;58277;47.316;18.908;2022-12-11T02:45:32;20.77;;;8.47;;
70707;SDS011;58277;47.316;18.908;2022-12-11T02:47:56;23.83;;;9.45;;
70707;SDS011;58277;47.316;18.908;2022-12-11T02:50:22;20.05;;;7.85;;
70707;SDS011;58277;47.316;18.908;2022-12-11T02:52:45;18.90;;;8.32;;
70707;SDS011;58277;47.316;18.908;2022-12-11T02:55:11;22.50;;;9.05;;
70707;SDS011;58277;47.316;18.908;2022-12-11T02:57:41;24.30;;;9.03;;
70707;SDS011;58277;47.316;18.908;2022-12-11T03:00:09;23.13;;;9.95;;
70707;SDS011;58277;47.316;18.908;2022-12-11T03:02:32;20.75;;;8.70;;
70707;SDS011;58277;47.316;18.908;2022-12-11T03:04:55;20.40;;;8.63;;
70707;SDS011;58277;47.316;18.908;2022-12-11T03:07:20;21.20;;;9.43;;
70707;SDS011;58277;47.316;18.908;2022-12-11T03:09:46;23.13;;;9.50;;
70707;SDS011;58277;47.316;18.908;2022-12-11T03:12:10;21.48;;;8.93;;
70707;SDS011;58277;47.316;18.908;2022-12-11T03:14:36;25.25;;;10.00;;
70707;SDS011;58277;47.316;18.908;2022-12-11T03:17:07;24.63;;;9.75;;
70707;SDS011;58277;47.316;18.908;2022-12-11T03:19:38;27.23;;;9.63;;
70707;SDS011;58277;47.316;18.908;2022-12-11T03:27:32;27.65;;;10.63;;
70707;SDS011;58277;47.316;18.908;2022-12-11T03:30:00;27.08;;;10.90;;
70707;SDS011;58277;47.316;18.908;2022-12-11T03:32:28;23.52;;;9.98;;
70707;SDS011;58277;47.316;18.908;2022-12-11T03:37:19;27.25;;;10.65;;
70707;SDS011;58277;47.316;18.908;2022-12-11T03:39:46;26.08;;;9.70;;
70707;SDS011;58277;47.316;18.908;2022-12-11T03:42:11;22.50;;;9.23;;
70707;SDS011;58277;47.316;18.908;2022-12-11T03:44:35;22.27;;;9.35;;
70707;SDS011;58277;47.316;18.908;2022-12-11T03:46:59;21.07;;;8.47;;
70707;SDS011;58277;47.316;18.908;2022-12-11T03:49:28;19.05;;;7.97;;
70707;SDS011;58277;47.316;18.908;2022-12-11T03:52:08;20.85;;;8.55;;
70707;SDS011;58277;47.316;18.908;2022-12-11T03:54:33;22.10;;;8.63;;
70707;SDS011;58277;47.316;18.908;2022-12-11T03:56:57;20.15;;;8.60;;
70707;SDS011;58277;47.316;18.908;2022-12-11T03:59:23;20.40;;;8.53;;
70707;SDS011;58277;47.316;18.908;2022-12-11T04:01:46;19.55;;;8.18;;
70707;SDS011;58277;47.316;18.908;2022-12-11T04:04:08;20.48;;;8.27;;
70707;SDS011;58277;47.316;18.908;2022-12-11T04:06:31;21.02;;;9.23;;
70707;SDS011;58277;47.316;18.908;2022-12-11T04:08:53;21.17;;;8.75;;
70707;SDS011;58277;47.316;18.908;2022-12-11T04:11:16;19.23;;;8.13;;
70707;SDS011;58277;47.316;18.908;2022-12-11T04:13:58;24.40;;;9.63;;
70707;SDS011;58277;47.316;18.908;2022-12-11T04:16:39;25.50;;;9.88;;
70707;SDS011;58277;47.316;18.908;2022-12-11T04:19:02;25.33;;;10.63;;
70707;SDS011;58277;47.316;18.908;2022-12-11T04:21:43;26.73;;;10.48;;
70707;SDS011;58277;47.316;18.908;2022-12-11T04:24:24;27.43;;;10.97;;
70707;SDS011;58277;47.316;18.908;2022-12-11T04:26:48;28.95;;;10.95;;
70707;SDS011;58277;47.316;18.908;2022-12-11T04:29:11;26.25;;;10.23;;
70707;SDS011;58277;47.316;18.908;2022-12-11T04:31:34;26.95;;;10.40;;
70707;SDS011;58277;47.316;18.908;2022-12-11T04:33:57;26.85;;;10.40;;
70707;SDS011;58277;47.316;18.908;2022-12-11T04:36:20;27.47;;;10.63;;
70707;SDS011;58277;47.316;18.908;2022-12-11T04:38:42;25.13;;;10.52;;
70707;SDS011;58277;47.316;18.908;2022-12-11T04:41:06;26.23;;;10.90;;
70707;SDS011;58277;47.316;18.908;2022-12-11T04:43:31;25.13;;;10.05;;
70707;SDS011;58277;47.316;18.908;2022-12-11T04:46:00;23.70;;;9.98;;
70707;SDS011;58277;47.316;18.908;2022-12-11T04:48:28;24.30;;;10.27;;
70707;SDS011;58277;47.316;18.908;2022-12-11T04:50:51;25.60;;;10.40;;
70707;SDS011;58277;47.316;18.908;2022-12-11T04:53:13;25.08;;;10.05;;
70707;SDS011;58277;47.316;18.908;2022-12-11T04:55:36;25.33;;;10.50;;
70707;SDS011;58277;47.316;18.908;2022-12-11T04:58:00;24.58;;;10.30;;
70707;SDS011;58277;47.316;18.908;2022-12-11T05:00:23;23.70;;;9.83;;
70707;SDS011;58277;47.316;18.908;2022-12-11T05:02:45;24.83;;;10.00;;
70707;SDS011;58277;47.316;18.908;2022-12-11T05:05:08;23.27;;;9.88;;
70707;SDS011;58277;47.316;18.908;2022-12-11T05:07:32;24.77;;;9.98;;
70707;SDS011;58277;47.316;18.908;2022-12-11T05:09:55;24.90;;;10.00;;
70707;SDS011;58277;47.316;18.908;2022-12-11T05:12:20;22.17;;;8.77;;
70707;SDS011;58277;47.316;18.908;2022-12-11T05:14:42;23.48;;;9.63;;
70707;SDS011;58277;47.316;18.908;2022-12-11T05:17:05;24.90;;;9.27;;
70707;SDS011;58277;47.316;18.908;2022-12-11T05:19:28;18.77;;;8.30;;
70707;SDS011;58277;47.316;18.908;2022-12-11T05:21:51;20.77;;;8.55;;
70707;SDS011;58277;47.316;18.908;2022-12-11T05:24:13;16.77;;;6.93;;
70707;SDS011;58277;47.316;18.908;2022-12-11T05:26:37;20.35;;;8.30;;
70707;SDS011;58277;47.316;18.908;2022-12-11T05:28:59;20.55;;;7.55;;
70707;SDS011;58277;47.316;18.908;2022-12-11T05:31:23;19.92;;;8.13;;
70707;SDS011;58277;47.316;18.908;2022-12-11T05:33:48;17.85;;;7.78;;
70707;SDS011;58277;47.316;18.908;2022-12-11T05:36:14;19.20;;;7.40;;
70707;SDS011;58277;47.316;18.908;2022-12-11T05:38:39;17.63;;;7.70;;
70707;SDS011;58277;47.316;18.908;2022-12-11T05:41:03;17.70;;;6.93;;
70707;SDS011;58277;47.316;18.908;2022-12-11T05:43:28;18.50;;;8.38;;
70707;SDS011;58277;47.316;18.908;2022-12-11T05:45:52;22.52;;;8.27;;
70707;SDS011;58277;47.316;18.908;2022-12-11T05:48:16;19.90;;;8.30;;
70707;SDS011;58277;47.316;18.908;2022-12-11T05:50:38;20.45;;;8.65;;
70707;SDS011;58277;47.316;18.908;2022-12-11T05:53:01;22.00;;;8.88;;
70707;SDS011;58277;47.316;18.908;2022-12-11T05:55:25;16.73;;;7.95;;
70707;SDS011;58277;47.316;18.908;2022-12-11T05:57:48;21.77;;;8.18;;
70707;SDS011;58277;47.316;18.908;2022-12-11T06:00:11;19.23;;;8.10;;
70707;SDS011;58277;47.316;18.908;2022-12-11T06:02:34;21.05;;;7.88;;
70707;SDS011;58277;47.316;18.908;2022-12-11T06:04:57;20.75;;;8.60;;
70707;SDS011;58277;47.316;18.908;2022-12-11T06:07:20;22.92;;;8.85;;
70707;SDS011;58277;47.316;18.908;2022-12-11T06:09:42;19.20;;;8.55;;
70707;SDS011;58277;47.316;18.908;2022-12-11T06:12:05;21.83;;;8.57;;
70707;SDS011;58277;47.316;18.908;2022-12-11T06:14:28;19.40;;;9.18;;
70707;SDS011;58277;47.316;18.908;2022-12-11T06:16:50;20.13;;;8.70;;
70707;SDS011;58277;47.316;18.908;2022-12-11T06:19:14;19.00;;;8.27;;
70707;SDS011;58277;47.316;18.908;2022-12-11T06:21:39;19.83;;;8.27;;
70707;SDS011;58277;47.316;18.908;2022-12-11T06:24:02;21.20;;;9.10;;
70707;SDS011;58277;47.316;18.908;2022-12-11T06:26:25;19.30;;;8.38;;
70707;SDS011;58277;47.316;18.908;2022-12-11T06:28:48;19.73;;;8.13;;
70707;SDS011;58277;47.316;18.908;2022-12-11T06:31:11;19.23;;;8.27;;
70707;SDS011;58277;47.316;18.908;2022-12-11T06:33:36;12.80;;;5.65;;
70707;SDS011;58277;47.316;18.908;2022-12-11T06:36:03;20.57;;;8.83;;
70707;SDS011;58277;47.316;18.908;2022-12-11T06:38:30;20.52;;;8.93;;
70707;SDS011;58277;47.316;18.908;2022-12-11T06:40:57;21.27;;;9.13;;
70707;SDS011;58277;47.316;18.908;2022-12-11T06:43:21;21.17;;;9.02;;
70707;SDS011;58277;47.316;18.908;2022-12-11T06:45:44;21.35;;;9.18;;
70707;SDS011;58277;47.316;18.908;2022-12-11T06:48:07;20.87;;;8.93;;
70707;SDS011;58277;47.316;18.908;2022-12-11T06:50:29;18.95;;;8.15;;
70707;SDS011;58277;47.316;18.908;2022-12-11T06:52:52;17.95;;;7.72;;
70707;SDS011;58277;47.316;18.908;2022-12-11T06:55:14;21.00;;;8.30;;
70707;SDS011;58277;47.316;18.908;2022-12-11T06:57:40;18.63;;;8.70;;
70707;SDS011;58277;47.316;18.908;2022-12-11T07:00:06;19.63;;;8.37;;
70707;SDS011;58277;47.316;18.908;2022-12-11T07:02:29;18.95;;;7.78;;
70707;SDS011;58277;47.316;18.908;2022-12-11T07:04:52;18.73;;;8.20;;
70707;SDS011;58277;47.316;18.908;2022-12-11T07:07:16;15.70;;;6.90;;
70707;SDS011;58277;47.316;18.908;2022-12-11T07:09:41;15.48;;;7.47;;
70707;SDS011;58277;47.316;18.908;2022-12-11T07:12:04;15.63;;;7.57;;
70707;SDS011;58277;47.316;18.908;2022-12-11T07:14:28;16.92;;;7.78;;
70707;SDS011;58277;47.316;18.908;2022-12-11T07:16:51;18.08;;;8.02;;
70707;SDS011;58277;47.316;18.908;2022-12-11T07:19:14;17.20;;;7.63;;
70707;SDS011;58277;47.316;18.908;2022-12-11T07:21:37;16.30;;;7.05;;
70707;SDS011;58277;47.316;18.908;2022-12-11T07:23:59;14.27;;;6.47;;
70707;SDS011;58277;47.316;18.908;2022-12-11T07:26:22;12.23;;;5.97;;
70707;SDS011;58277;47.316;18.908;2022-12-11T07:28:45;16.70;;;7.43;;
70707;SDS011;58277;47.316;18.908;2022-12-11T07:31:09;14.38;;;7.18;;
70707;SDS011;58277;47.316;18.908;2022-12-11T07:33:36;15.07;;;7.28;;
70707;SDS011;58277;47.316;18.908;2022-12-11T07:36:00;14.03;;;7.20;;
70707;SDS011;58277;47.316;18.908;2022-12-11T07:38:24;13.95;;;6.28;;
70707;SDS011;58277;47.316;18.908;2022-12-11T07:40:47;15.80;;;7.00;;
70707;SDS011;58277;47.316;18.908;2022-12-11T07:43:09;14.60;;;6.55;;
70707;SDS011;58277;47.316;18.908;2022-12-11T07:45:32;14.02;;;6.57;;
70707;SDS011;58277;47.316;18.908;2022-12-11T07:47:55;13.43;;;6.17;;
70707;SDS011;58277;47.316;18.908;2022-12-11T07:50:18;13.77;;;6.53;;
70707;SDS011;58277;47.316;18.908;2022-12-11T07:52:41;13.90;;;6.43;;
70707;SDS011;58277;47.316;18.908;2022-12-11T07:55:03;13.70;;;6.47;;
70707;SDS011;58277;47.316;18.908;2022-12-11T07:57:27;10.57;;;5.43;;
70707;SDS011;58277;47.316;18.908;2022-12-11T07:59:50;11.70;;;5.93;;
70707;SDS011;58277;47.316;18.908;2022-12-11T08:02:12;10.93;;;5.93;;
70707;SDS011;58277;47.316;18.908;2022-12-11T08:04:35;10.90;;;5.10;;
70707;SDS011;58277;47.316;18.908;2022-12-11T08:06:58;11.27;;;5.28;;
70707;SDS011;58277;47.316;18.908;2022-12-11T08:09:21;11.65;;;5.88;;
70707;SDS011;58277;47.316;18.908;2022-12-11T08:11:43;11.33;;;5.07;;
70707;SDS011;58277;47.316;18.908;2022-12-11T08:14:06;11.50;;;5.68;;
70707;SDS011;58277;47.316;18.908;2022-12-11T08:16:29;10.85;;;6.00;;
70707;SDS011;58277;47.316;18.908;2022-12-11T08:18:53;11.45;;;5.97;;
70707;SDS011;58277;47.316;18.908;2022-12-11T08:21:21;11.45;;;5.65;;
70707;SDS011;58277;47.316;18.908;2022-12-11T08:23:45;12.40;;;5.90;;
70707;SDS011;58277;47.316;18.908;2022-12-11T08:26:10;11.98;;;6.30;;
70707;SDS011;58277;47.316;18.908;2022-12-11T08:28:36;12.95;;;6.53;;
70707;SDS011;58277;47.316;18.908;2022-12-11T08:30:59;12.75;;;5.57;;
70707;SDS011;58277;47.316;18.908;2022-12-11T08:33:22;12.50;;;5.63;;
70707;SDS011;58277;47.316;18.908;2022-12-11T08:35:45;12.50;;;6.33;;
70707;SDS011;58277;47.316;18.908;2022-12-11T08:38:07;12.32;;;6.03;;
70707;SDS011;58277;47.316;18.908;2022-12-11T08:40:30;12.00;;;6.20;;
70707;SDS011;58277;47.316;18.908;2022-12-11T08:42:53;12.13;;;6.22;;
70707;SDS011;58277;47.316;18.908;2022-12-11T08:45:15;10.98;;;5.93;;
70707;SDS011;58277;47.316;18.908;2022-12-11T08:47:38;12.63;;;6.30;;
70707;SDS011;58277;47.316;18.908;2022-12-11T08:50:02;13.60;;;6.65;;
70707;SDS011;58277;47.316;18.908;2022-12-11T08:52:26;11.70;;;5.85;;
70707;SDS011;58277;47.316;18.908;2022-12-11T08:54:48;14.15;;;7.00;;
70707;SDS011;58277;47.316;18.908;2022-12-11T08:57:11;10.73;;;5.78;;
70707;SDS011;58277;47.316;18.908;2022-12-11T08:59:35;10.73;;;5.10;;
70707;SDS011;58277;47.316;18.908;2022-12-11T09:01:58;12.55;;;6.00;;
70707;SDS011;58277;47.316;18.908;2022-12-11T09:04:21;11.52;;;5.90;;
70707;SDS011;58277;47.316;18.908;2022-12-11T09:06:44;10.35;;;4.90;;
70707;SDS011;58277;47.316;18.908;2022-12-11T09:09:07;8.50;;;4.65;;
70707;SDS011;58277;47.316;18.908;2022-12-11T09:11:30;10.20;;;5.10;;
70707;SDS011;58277;47.316;18.908;2022-12-11T09:13:55;12.57;;;5.50;;
70707;SDS011;58277;47.316;18.908;2022-12-11T09:16:22;10.02;;;5.15;;
70707;SDS011;58277;47.316;18.908;2022-12-11T09:18:46;11.68;;;5.78;;
70707;SDS011;58277;47.316;18.908;2022-12-11T09:21:11;10.35;;;5.55;;
70707;SDS011;58277;47.316;18.908;2022-12-11T09:23:36;11.93;;;5.67;;
70707;SDS011;58277;47.316;18.908;2022-12-11T09:26:03;11.20;;;5.55;;
70707;SDS011;58277;47.316;18.908;2022-12-11T09:28:27;11.57;;;5.90;;
70707;SDS011;58277;47.316;18.908;2022-12-11T09:30:49;11.65;;;6.35;;
70707;SDS011;58277;47.316;18.908;2022-12-11T09:33:13;11.40;;;5.80;;
70707;SDS011;58277;47.316;18.908;2022-12-11T09:35:36;10.57;;;5.40;;
70707;SDS011;58277;47.316;18.908;2022-12-11T09:37:58;12.15;;;5.72;;
70707;SDS011;58277;47.316;18.908;2022-12-11T09:40:21;11.40;;;5.70;;
70707;SDS011;58277;47.316;18.908;2022-12-11T09:43:45;11.75;;;4.50;;
70707;SDS011;58277;47.316;18.908;2022-12-11T09:45:35;12.10;;;5.63;;
70707;SDS011;58277;47.316;18.908;2022-12-11T09:47:58;12.03;;;5.63;;
70707;SDS011;58277;47.316;18.908;2022-12-11T09:50:23;11.07;;;5.97;;
70707;SDS011;58277;47.316;18.908;2022-12-11T09:53:11;14.52;;;6.47;;
70707;SDS011;58277;47.316;18.908;2022-12-11T09:55:42;12.25;;;5.60;;
70707;SDS011;58277;47.316;18.908;2022-12-11T10:00:51;12.07;;;5.27;;
70707;SDS011;58277;47.316;18.908;2022-12-11T10:03:28;11.15;;;5.35;;
70707;SDS011;58277;47.316;18.908;2022-12-11T10:06:15;8.77;;;4.70;;
70707;SDS011;58277;47.316;18.908;2022-12-11T10:08:52;9.70;;;4.30;;
70707;SDS011;58277;47.316;18.908;2022-12-11T10:14:07;8.53;;;4.43;;
70707;SDS011;58277;47.316;18.908;2022-12-11T10:16:56;10.23;;;4.95;;
70707;SDS011;58277;47.316;18.908;2022-12-11T10:19:25;10.65;;;4.72;;
70707;SDS011;58277;47.316;18.908;2022-12-11T10:21:50;10.38;;;4.90;;
70707;SDS011;58277;47.316;18.908;2022-12-11T10:24:19;9.70;;;4.43;;
70707;SDS011;58277;47.316;18.908;2022-12-11T10:27:50;9.50;;;4.70;;
70707;SDS011;58277;47.316;18.908;2022-12-11T10:35:52;10.40;;;4.07;;
70707;SDS011;58277;47.316;18.908;2022-12-11T10:41:03;8.53;;;4.10;;
70707;SDS011;58277;47.316;18.908;2022-12-11T10:43:41;9.52;;;4.38;;
70707;SDS011;58277;47.316;18.908;2022-12-11T10:46:06;10.45;;;4.95;;
70707;SDS011;58277;47.316;18.908;2022-12-11T10:48:52;9.48;;;4.25;;
70707;SDS011;58277;47.316;18.908;2022-12-11T10:51:16;9.70;;;4.20;;
70707;SDS011;58277;47.316;18.908;2022-12-11T10:53:39;10.20;;;5.10;;
70707;SDS011;58277;47.316;18.908;2022-12-11T10:56:07;7.85;;;3.88;;
70707;SDS011;58277;47.316;18.908;2022-12-11T10:58:31;8.85;;;4.63;;
70707;SDS011;58277;47.316;18.908;2022-12-11T11:01:13;8.73;;;4.55;;
70707;SDS011;58277;47.316;18.908;2022-12-11T11:03:42;10.52;;;4.63;;
70707;SDS011;58277;47.316;18.908;2022-12-11T11:06:24;11.17;;;5.00;;
70707;SDS011;58277;47.316;18.908;2022-12-11T11:08:49;10.35;;;4.43;;
70707;SDS011;58277;47.316;18.908;2022-12-11T11:11:21;7.40;;;3.10;;
70707;SDS011;58277;47.316;18.908;2022-12-11T11:13:47;10.20;;;4.50;;
70707;SDS011;58277;47.316;18.908;2022-12-11T11:16:11;9.20;;;3.67;;
70707;SDS011;58277;47.316;18.908;2022-12-11T11:18:37;9.10;;;4.47;;
70707;SDS011;58277;47.316;18.908;2022-12-11T11:21:02;8.52;;;3.72;;
70707;SDS011;58277;47.316;18.908;2022-12-11T11:23:25;10.43;;;4.72;;
70707;SDS011;58277;47.316;18.908;2022-12-11T11:26:09;10.95;;;4.47;;
70707;SDS011;58277;47.316;18.908;2022-12-11T11:28:33;8.73;;;4.00;;
70707;SDS011;58277;47.316;18.908;2022-12-11T11:33:23;8.13;;;4.13;;
70707;SDS011;58277;47.316;18.908;2022-12-11T11:35:54;10.45;;;4.13;;
70707;SDS011;58277;47.316;18.908;2022-12-11T11:38:20;7.82;;;3.42;;
70707;SDS011;58277;47.316;18.908;2022-12-11T11:43:44;9.37;;;3.67;;
70707;SDS011;58277;47.316;18.908;2022-12-11T11:46:23;9.00;;;4.28;;
70707;SDS011;58277;47.316;18.908;2022-12-11T11:51:20;11.45;;;4.90;;
70707;SDS011;58277;47.316;18.908;2022-12-11T11:53:58;10.00;;;4.68;;
70707;SDS011;58277;47.316;18.908;2022-12-11T11:58:48;8.95;;;3.75;;
70707;SDS011;58277;47.316;18.908;2022-12-11T12:01:13;9.23;;;4.20;;
70707;SDS011;58277;47.316;18.908;2022-12-11T12:03:37;8.80;;;3.92;;
70707;SDS011;58277;47.316;18.908;2022-12-11T12:17:04;10.32;;;4.05;;
70707;SDS011;58277;47.316;18.908;2022-12-11T12:30:53;10.00;;;3.97;;
70707;SDS011;58277;47.316;18.908;2022-12-11T12:36:25;8.60;;;3.87;;
70707;SDS011;58277;47.316;18.908;2022-12-11T12:44:30;7.70;;;3.60;;
70707;SDS011;58277;47.316;18.908;2022-12-11T12:47:27;8.73;;;3.60;;
70707;SDS011;58277;47.316;18.908;2022-12-11T12:49:55;8.60;;;3.63;;
70707;SDS011;58277;47.316;18.908;2022-12-11T12:52:22;9.88;;;3.22;;
70707;SDS011;58277;47.316;18.908;2022-12-11T12:54:52;6.40;;;3.20;;
70707;SDS011;58277;47.316;18.908;2022-12-11T12:57:36;9.70;;;4.22;;
70707;SDS011;58277;47.316;18.908;2022-12-11T13:00:01;8.13;;;3.60;;
70707;SDS011;58277;47.316;18.908;2022-12-11T13:02:33;8.90;;;3.83;;
70707;SDS011;58277;47.316;18.908;2022-12-11T13:05:02;7.30;;;2.88;;
70707;SDS011;58277;47.316;18.908;2022-12-11T13:07:30;9.57;;;3.67;;
70707;SDS011;58277;47.316;18.908;2022-12-11T13:10:06;8.82;;;3.50;;
70707;SDS011;58277;47.316;18.908;2022-12-11T13:12:46;8.90;;;3.53;;
70707;SDS011;58277;47.316;18.908;2022-12-11T13:15:22;8.60;;;3.50;;
70707;SDS011;58277;47.316;18.908;2022-12-11T13:21:00;10.60;;;4.50;;
70707;SDS011;58277;47.316;18.908;2022-12-11T13:23:28;9.65;;;4.07;;
70707;SDS011;58277;47.316;18.908;2022-12-11T13:25:55;8.13;;;3.50;;
70707;SDS011;58277;47.316;18.908;2022-12-11T13:28:30;9.43;;;3.77;;
70707;SDS011;58277;47.316;18.908;2022-12-11T13:33:51;7.82;;;3.80;;
70707;SDS011;58277;47.316;18.908;2022-12-11T13:38:46;9.82;;;3.67;;
70707;SDS011;58277;47.316;18.908;2022-12-11T13:41:13;8.83;;;3.70;;
70707;SDS011;58277;47.316;18.908;2022-12-11T13:43:36;8.32;;;3.75;;
70707;SDS011;58277;47.316;18.908;2022-12-11T13:46:04;8.93;;;4.28;;
70707;SDS011;58277;47.316;18.908;2022-12-11T13:48:32;9.07;;;3.58;;
70707;SDS011;58277;47.316;18.908;2022-12-11T13:50:59;10.90;;;4.30;;
70707;SDS011;58277;47.316;18.908;2022-12-11T13:53:22;9.87;;;3.93;;
70707;SDS011;58277;47.316;18.908;2022-12-11T13:55:46;11.60;;;3.88;;
70707;SDS011;58277;47.316;18.908;2022-12-11T13:58:21;11.07;;;4.10;;
70707;SDS011;58277;47.316;18.908;2022-12-11T14:03:30;10.60;;;4.40;;
70707;SDS011;58277;47.316;18.908;2022-12-11T14:05:53;12.00;;;4.80;;
70707;SDS011;58277;47.316;18.908;2022-12-11T14:08:19;11.18;;;4.50;;
70707;SDS011;58277;47.316;18.908;2022-12-11T14:10:45;9.80;;;4.35;;
70707;SDS011;58277;47.316;18.908;2022-12-11T14:13:21;11.18;;;4.63;;
70707;SDS011;58277;47.316;18.908;2022-12-11T14:15:46;9.60;;;4.72;;
70707;SDS011;58277;47.316;18.908;2022-12-11T14:18:12;10.40;;;4.47;;
70707;SDS011;58277;47.316;18.908;2022-12-11T14:20:39;10.48;;;4.55;;
70707;SDS011;58277;47.316;18.908;2022-12-11T14:23:19;11.55;;;4.50;;
70707;SDS011;58277;47.316;18.908;2022-12-11T14:25:56;10.45;;;4.53;;
70707;SDS011;58277;47.316;18.908;2022-12-11T14:28:20;13.18;;;5.63;;
70707;SDS011;58277;47.316;18.908;2022-12-11T14:30:50;11.20;;;4.37;;
70707;SDS011;58277;47.316;18.908;2022-12-11T14:33:13;16.58;;;6.03;;
70707;SDS011;58277;47.316;18.908;2022-12-11T14:35:38;13.50;;;5.25;;
70707;SDS011;58277;47.316;18.908;2022-12-11T14:38:06;14.10;;;5.60;;
70707;SDS011;58277;47.316;18.908;2022-12-11T14:40:38;14.30;;;5.32;;
70707;SDS011;58277;47.316;18.908;2022-12-11T14:43:17;14.93;;;5.40;;
70707;SDS011;58277;47.316;18.908;2022-12-11T14:45:45;13.07;;;5.55;;
70707;SDS011;58277;47.316;18.908;2022-12-11T14:48:13;12.88;;;5.53;;
70707;SDS011;58277;47.316;18.908;2022-12-11T14:50:43;13.32;;;5.65;;
70707;SDS011;58277;47.316;18.908;2022-12-11T14:53:12;14.60;;;5.63;;
70707;SDS011;58277;47.316;18.908;2022-12-11T14:55:36;12.50;;;5.03;;
70707;SDS011;58277;47.316;18.908;2022-12-11T14:58:02;15.70;;;5.55;;
70707;SDS011;58277;47.316;18.908;2022-12-11T15:00:30;14.63;;;5.45;;
70707;SDS011;58277;47.316;18.908;2022-12-11T15:03:01;13.20;;;4.75;;
70707;SDS011;58277;47.316;18.908;2022-12-11T15:05:26;14.90;;;5.53;;
70707;SDS011;58277;47.316;18.908;2022-12-11T15:07:55;12.67;;;4.90;;
70707;SDS011;58277;47.316;18.908;2022-12-11T15:10:26;12.60;;;5.03;;
70707;SDS011;58277;47.316;18.908;2022-12-11T15:12:56;12.98;;;5.60;;
70707;SDS011;58277;47.316;18.908;2022-12-11T15:15:19;14.70;;;5.15;;
70707;SDS011;58277;47.316;18.908;2022-12-11T15:17:42;13.20;;;4.93;;
70707;SDS011;58277;47.316;18.908;2022-12-11T15:20:22;14.83;;;5.77;;
70707;SDS011;58277;47.316;18.908;2022-12-11T15:22:48;14.32;;;5.25;;
70707;SDS011;58277;47.316;18.908;2022-12-11T15:25:18;13.18;;;4.97;;
70707;SDS011;58277;47.316;18.908;2022-12-11T15:27:43;12.75;;;5.00;;
70707;SDS011;58277;47.316;18.908;2022-12-11T15:32:48;14.07;;;5.67;;
70707;SDS011;58277;47.316;18.908;2022-12-11T15:35:21;13.98;;;5.60;;
70707;SDS011;58277;47.316;18.908;2022-12-11T15:37:50;13.98;;;5.30;;
70707;SDS011;58277;47.316;18.908;2022-12-11T15:40:17;16.13;;;5.57;;
70707;SDS011;58277;47.316;18.908;2022-12-11T15:42:40;13.85;;;5.50;;
70707;SDS011;58277;47.316;18.908;2022-12-11T15:45:07;11.10;;;4.83;;
70707;SDS011;58277;47.316;18.908;2022-12-11T15:47:36;13.55;;;5.47;;
70707;SDS011;58277;47.316;18.908;2022-12-11T15:50:00;12.75;;;5.00;;
70707;SDS011;58277;47.316;18.908;2022-12-11T15:52:29;14.68;;;5.70;;